sensor_id;sensor_type;location;lat;lon;timestamp;P1;durP1;ratioP1;P2;durP2;ratioP2
41043;SDS011;51680;49.806;18.774;2023-07-28T00:02:07;3.05;;;1.52;;
41043;SDS011;51680;49.806;18.774;2023-07-28T00:05:09;3.67;;;1.58;;
41043;SDS011;51680;49.806;18.774;2023-07-28T00:08:12;6.88;;;1.98;;
41043;SDS011;51680;49.806;18.774;2023-07-28T00:11:14;7.47;;;1.60;;
41043;SDS011;51680;49.806;18.774;2023-07-28T00:14:17;14.65;;;2.53;;
41043;SDS011;51680;49.806;18.774;2023-07-28T00:17:18;4.95;;;1.50;;
41043;SDS011;51680;49.806;18.774;2023-07-28T00:20:20;3.05;;;1.60;;
41043;SDS011;51680;49.806;18.774;2023-07-28T00:23:23;3.42;;;1.98;;
41043;SDS011;51680;49.806;18.774;2023-07-28T00:26:25;4.07;;;1.63;;
41043;SDS011;51680;49.806;18.774;2023-07-28T00:29:27;6.78;;;1.70;;
41043;SDS011;51680;49.806;18.774;2023-07-28T00:32:29;3.45;;;1.60;;
41043;SDS011;51680;49.806;18.774;2023-07-28T00:35:30;4.65;;;2.00;;
41043;SDS011;51680;49.806;18.774;2023-07-28T00:38:34;4.30;;;1.70;;
41043;SDS011;51680;49.806;18.774;2023-07-28T00:41:36;7.03;;;1.90;;
41043;SDS011;51680;49.806;18.774;2023-07-28T00:44:38;3.33;;;1.70;;
41043;SDS011;51680;49.806;18.774;2023-07-28T00:47:40;4.03;;;1.50;;
41043;SDS011;51680;49.806;18.774;2023-07-28T00:50:42;3.65;;;1.60;;
41043;SDS011;51680;49.806;18.774;2023-07-28T00:53:48;4.72;;;1.63;;
41043;SDS011;51680;49.806;18.774;2023-07-28T00:56:50;3.90;;;1.80;;
41043;SDS011;51680;49.806;18.774;2023-07-28T00:59:52;2.85;;;1.67;;
41043;SDS011;51680;49.806;18.774;2023-07-28T01:02:54;3.25;;;1.45;;
41043;SDS011;51680;49.806;18.774;2023-07-28T01:06:00;3.30;;;1.77;;
41043;SDS011;51680;49.806;18.774;2023-07-28T01:09:14;2.83;;;1.60;;
41043;SDS011;51680;49.806;18.774;2023-07-28T01:12:20;4.93;;;1.80;;
41043;SDS011;51680;49.806;18.774;2023-07-28T01:15:23;3.40;;;1.50;;
41043;SDS011;51680;49.806;18.774;2023-07-28T01:18:24;2.53;;;1.60;;
41043;SDS011;51680;49.806;18.774;2023-07-28T01:21:28;3.88;;;1.50;;
41043;SDS011;51680;49.806;18.774;2023-07-28T01:24:35;2.83;;;1.60;;
41043;SDS011;51680;49.806;18.774;2023-07-28T01:27:44;4.90;;;1.55;;
41043;SDS011;51680;49.806;18.774;2023-07-28T01:30:47;3.83;;;1.83;;
41043;SDS011;51680;49.806;18.774;2023-07-28T01:33:49;5.38;;;1.70;;
41043;SDS011;51680;49.806;18.774;2023-07-28T01:36:51;4.55;;;1.60;;
41043;SDS011;51680;49.806;18.774;2023-07-28T01:39:52;4.45;;;1.50;;
41043;SDS011;51680;49.806;18.774;2023-07-28T01:42:56;3.90;;;1.65;;
41043;SDS011;51680;49.806;18.774;2023-07-28T01:45:58;3.72;;;1.60;;
41043;SDS011;51680;49.806;18.774;2023-07-28T01:49:00;2.72;;;1.38;;
41043;SDS011;51680;49.806;18.774;2023-07-28T01:52:02;3.20;;;1.83;;
41043;SDS011;51680;49.806;18.774;2023-07-28T01:55:04;4.82;;;1.58;;
41043;SDS011;51680;49.806;18.774;2023-07-28T01:58:08;2.97;;;1.50;;
41043;SDS011;51680;49.806;18.774;2023-07-28T02:01:12;4.00;;;1.73;;
41043;SDS011;51680;49.806;18.774;2023-07-28T02:04:14;7.28;;;1.65;;
41043;SDS011;51680;49.806;18.774;2023-07-28T02:07:16;4.22;;;1.90;;
41043;SDS011;51680;49.806;18.774;2023-07-28T02:10:18;4.13;;;1.38;;
41043;SDS011;51680;49.806;18.774;2023-07-28T02:13:22;3.55;;;1.35;;
41043;SDS011;51680;49.806;18.774;2023-07-28T02:19:27;3.67;;;1.17;;
41043;SDS011;51680;49.806;18.774;2023-07-28T02:22:29;2.53;;;1.20;;
41043;SDS011;51680;49.806;18.774;2023-07-28T02:25:31;2.53;;;1.52;;
41043;SDS011;51680;49.806;18.774;2023-07-28T02:28:35;3.90;;;1.70;;
41043;SDS011;51680;49.806;18.774;2023-07-28T02:31:37;3.43;;;1.60;;
41043;SDS011;51680;49.806;18.774;2023-07-28T02:34:39;3.38;;;1.83;;
41043;SDS011;51680;49.806;18.774;2023-07-28T02:37:41;3.38;;;1.50;;
41043;SDS011;51680;49.806;18.774;2023-07-28T02:40:43;3.40;;;1.58;;
41043;SDS011;51680;49.806;18.774;2023-07-28T02:43:46;3.20;;;1.50;;
41043;SDS011;51680;49.806;18.774;2023-07-28T02:46:47;2.92;;;1.60;;
41043;SDS011;51680;49.806;18.774;2023-07-28T02:49:49;4.07;;;1.77;;
41043;SDS011;51680;49.806;18.774;2023-07-28T02:52:51;3.15;;;1.70;;
41043;SDS011;51680;49.806;18.774;2023-07-28T02:55:53;3.78;;;1.77;;
41043;SDS011;51680;49.806;18.774;2023-07-28T02:58:56;4.68;;;1.80;;
41043;SDS011;51680;49.806;18.774;2023-07-28T03:01:58;5.20;;;1.70;;
41043;SDS011;51680;49.806;18.774;2023-07-28T03:05:00;3.72;;;1.33;;
41043;SDS011;51680;49.806;18.774;2023-07-28T03:08:31;3.22;;;1.50;;
41043;SDS011;51680;49.806;18.774;2023-07-28T03:11:52;3.20;;;1.90;;
41043;SDS011;51680;49.806;18.774;2023-07-28T03:14:55;3.17;;;1.58;;
41043;SDS011;51680;49.806;18.774;2023-07-28T03:17:57;2.57;;;1.63;;
41043;SDS011;51680;49.806;18.774;2023-07-28T03:20:59;2.22;;;1.35;;
41043;SDS011;51680;49.806;18.774;2023-07-28T03:24:00;3.95;;;1.73;;
41043;SDS011;51680;49.806;18.774;2023-07-28T03:27:02;2.25;;;1.30;;
41043;SDS011;51680;49.806;18.774;2023-07-28T03:30:07;3.78;;;1.50;;
41043;SDS011;51680;49.806;18.774;2023-07-28T03:33:11;3.17;;;1.70;;
41043;SDS011;51680;49.806;18.774;2023-07-28T03:36:12;3.55;;;1.80;;
41043;SDS011;51680;49.806;18.774;2023-07-28T03:39:14;3.50;;;1.45;;
41043;SDS011;51680;49.806;18.774;2023-07-28T03:42:19;2.47;;;1.40;;
41043;SDS011;51680;49.806;18.774;2023-07-28T03:45:23;3.88;;;1.73;;
41043;SDS011;51680;49.806;18.774;2023-07-28T03:48:25;3.97;;;1.98;;
41043;SDS011;51680;49.806;18.774;2023-07-28T03:51:27;2.85;;;1.58;;
41043;SDS011;51680;49.806;18.774;2023-07-28T03:54:28;3.65;;;1.63;;
41043;SDS011;51680;49.806;18.774;2023-07-28T03:57:30;2.83;;;1.40;;
41043;SDS011;51680;49.806;18.774;2023-07-28T04:00:33;3.58;;;1.67;;
41043;SDS011;51680;49.806;18.774;2023-07-28T04:03:35;3.50;;;1.73;;
41043;SDS011;51680;49.806;18.774;2023-07-28T04:06:39;4.50;;;1.88;;
41043;SDS011;51680;49.806;18.774;2023-07-28T04:09:42;2.70;;;1.58;;
41043;SDS011;51680;49.806;18.774;2023-07-28T04:12:43;5.82;;;1.80;;
41043;SDS011;51680;49.806;18.774;2023-07-28T04:15:47;3.13;;;1.67;;
41043;SDS011;51680;49.806;18.774;2023-07-28T04:18:48;3.30;;;1.70;;
41043;SDS011;51680;49.806;18.774;2023-07-28T04:21:50;7.10;;;2.13;;
41043;SDS011;51680;49.806;18.774;2023-07-28T04:24:52;4.10;;;1.80;;
41043;SDS011;51680;49.806;18.774;2023-07-28T04:27:55;3.13;;;1.55;;
41043;SDS011;51680;49.806;18.774;2023-07-28T04:30:58;2.78;;;1.60;;
41043;SDS011;51680;49.806;18.774;2023-07-28T04:34:25;5.72;;;1.70;;
41043;SDS011;51680;49.806;18.774;2023-07-28T04:37:50;4.32;;;1.73;;
41043;SDS011;51680;49.806;18.774;2023-07-28T04:41:02;5.47;;;1.80;;
41043;SDS011;51680;49.806;18.774;2023-07-28T04:44:27;2.75;;;1.67;;
41043;SDS011;51680;49.806;18.774;2023-07-28T04:47:35;4.43;;;1.60;;
41043;SDS011;51680;49.806;18.774;2023-07-28T04:50:37;3.97;;;1.70;;
41043;SDS011;51680;49.806;18.774;2023-07-28T04:53:48;3.72;;;2.00;;
41043;SDS011;51680;49.806;18.774;2023-07-28T04:56:56;3.78;;;1.90;;
41043;SDS011;51680;49.806;18.774;2023-07-28T05:00:05;4.82;;;2.10;;
41043;SDS011;51680;49.806;18.774;2023-07-28T05:06:18;5.45;;;1.65;;
41043;SDS011;51680;49.806;18.774;2023-07-28T05:09:20;4.75;;;1.70;;
41043;SDS011;51680;49.806;18.774;2023-07-28T05:12:22;6.10;;;1.83;;
41043;SDS011;51680;49.806;18.774;2023-07-28T05:15:24;5.97;;;1.80;;
41043;SDS011;51680;49.806;18.774;2023-07-28T05:18:27;3.80;;;1.80;;
41043;SDS011;51680;49.806;18.774;2023-07-28T05:21:48;5.70;;;2.00;;
41043;SDS011;51680;49.806;18.774;2023-07-28T05:24:52;3.88;;;1.80;;
41043;SDS011;51680;49.806;18.774;2023-07-28T05:27:54;3.58;;;2.20;;
41043;SDS011;51680;49.806;18.774;2023-07-28T05:31:02;4.55;;;2.33;;
41043;SDS011;51680;49.806;18.774;2023-07-28T05:34:06;3.05;;;1.92;;
41043;SDS011;51680;49.806;18.774;2023-07-28T05:37:08;4.50;;;2.20;;
41043;SDS011;51680;49.806;18.774;2023-07-28T05:40:10;3.47;;;1.70;;
41043;SDS011;51680;49.806;18.774;2023-07-28T05:43:13;5.37;;;1.80;;
41043;SDS011;51680;49.806;18.774;2023-07-28T05:46:15;3.53;;;1.90;;
41043;SDS011;51680;49.806;18.774;2023-07-28T05:49:18;5.50;;;2.00;;
41043;SDS011;51680;49.806;18.774;2023-07-28T05:52:20;4.33;;;1.87;;
41043;SDS011;51680;49.806;18.774;2023-07-28T05:55:22;6.10;;;1.85;;
41043;SDS011;51680;49.806;18.774;2023-07-28T05:58:24;5.50;;;2.13;;
41043;SDS011;51680;49.806;18.774;2023-07-28T06:01:26;3.30;;;1.73;;
41043;SDS011;51680;49.806;18.774;2023-07-28T06:04:48;3.67;;;1.63;;
41043;SDS011;51680;49.806;18.774;2023-07-28T06:07:50;3.47;;;1.60;;
41043;SDS011;51680;49.806;18.774;2023-07-28T06:10:52;6.45;;;1.90;;
41043;SDS011;51680;49.806;18.774;2023-07-28T06:13:54;3.78;;;1.80;;
41043;SDS011;51680;49.806;18.774;2023-07-28T06:16:57;4.00;;;2.00;;
41043;SDS011;51680;49.806;18.774;2023-07-28T06:20:05;3.05;;;1.70;;
41043;SDS011;51680;49.806;18.774;2023-07-28T06:23:08;3.58;;;1.60;;
41043;SDS011;51680;49.806;18.774;2023-07-28T06:26:10;3.70;;;1.88;;
41043;SDS011;51680;49.806;18.774;2023-07-28T06:29:13;3.58;;;1.50;;
41043;SDS011;51680;49.806;18.774;2023-07-28T06:32:15;3.10;;;1.77;;
41043;SDS011;51680;49.806;18.774;2023-07-28T06:35:19;3.70;;;1.77;;
41043;SDS011;51680;49.806;18.774;2023-07-28T06:38:20;3.70;;;1.60;;
41043;SDS011;51680;49.806;18.774;2023-07-28T06:41:22;3.17;;;1.83;;
41043;SDS011;51680;49.806;18.774;2023-07-28T06:44:31;3.95;;;1.85;;
41043;SDS011;51680;49.806;18.774;2023-07-28T06:47:33;3.38;;;1.60;;
41043;SDS011;51680;49.806;18.774;2023-07-28T06:50:37;3.80;;;1.50;;
41043;SDS011;51680;49.806;18.774;2023-07-28T06:53:39;2.63;;;1.48;;
41043;SDS011;51680;49.806;18.774;2023-07-28T06:56:41;3.90;;;1.45;;
41043;SDS011;51680;49.806;18.774;2023-07-28T06:59:43;2.60;;;1.60;;
41043;SDS011;51680;49.806;18.774;2023-07-28T07:02:44;2.95;;;1.80;;
41043;SDS011;51680;49.806;18.774;2023-07-28T07:05:49;3.72;;;2.00;;
41043;SDS011;51680;49.806;18.774;2023-07-28T07:08:50;4.67;;;1.67;;
41043;SDS011;51680;49.806;18.774;2023-07-28T07:11:53;5.57;;;1.70;;
41043;SDS011;51680;49.806;18.774;2023-07-28T07:14:54;3.80;;;2.10;;
41043;SDS011;51680;49.806;18.774;2023-07-28T07:17:56;4.50;;;1.58;;
41043;SDS011;51680;49.806;18.774;2023-07-28T07:21:02;2.90;;;1.65;;
41043;SDS011;51680;49.806;18.774;2023-07-28T07:24:04;3.58;;;1.50;;
41043;SDS011;51680;49.806;18.774;2023-07-28T07:27:06;2.92;;;1.38;;
41043;SDS011;51680;49.806;18.774;2023-07-28T07:30:11;2.30;;;1.40;;
41043;SDS011;51680;49.806;18.774;2023-07-28T07:33:13;4.47;;;1.35;;
41043;SDS011;51680;49.806;18.774;2023-07-28T07:36:16;5.22;;;1.73;;
41043;SDS011;51680;49.806;18.774;2023-07-28T07:39:19;2.60;;;1.23;;
41043;SDS011;51680;49.806;18.774;2023-07-28T07:42:21;3.75;;;1.30;;
41043;SDS011;51680;49.806;18.774;2023-07-28T07:45:22;3.03;;;1.35;;
41043;SDS011;51680;49.806;18.774;2023-07-28T07:48:24;3.90;;;1.70;;
41043;SDS011;51680;49.806;18.774;2023-07-28T07:51:27;2.97;;;1.50;;
41043;SDS011;51680;49.806;18.774;2023-07-28T07:54:29;4.90;;;1.30;;
41043;SDS011;51680;49.806;18.774;2023-07-28T07:57:31;3.03;;;1.40;;
41043;SDS011;51680;49.806;18.774;2023-07-28T08:00:32;2.78;;;1.50;;
41043;SDS011;51680;49.806;18.774;2023-07-28T08:03:34;2.80;;;1.52;;
41043;SDS011;51680;49.806;18.774;2023-07-28T08:06:39;6.30;;;1.63;;
41043;SDS011;51680;49.806;18.774;2023-07-28T08:09:41;2.57;;;1.30;;
41043;SDS011;51680;49.806;18.774;2023-07-28T08:12:43;3.65;;;1.80;;
41043;SDS011;51680;49.806;18.774;2023-07-28T08:15:47;2.83;;;1.60;;
41043;SDS011;51680;49.806;18.774;2023-07-28T08:18:49;3.15;;;1.70;;
41043;SDS011;51680;49.806;18.774;2023-07-28T08:21:52;2.30;;;1.45;;
41043;SDS011;51680;49.806;18.774;2023-07-28T08:24:53;2.70;;;1.40;;
41043;SDS011;51680;49.806;18.774;2023-07-28T08:27:55;4.03;;;1.38;;
41043;SDS011;51680;49.806;18.774;2023-07-28T08:30:57;5.00;;;1.63;;
41043;SDS011;51680;49.806;18.774;2023-07-28T08:33:59;3.85;;;1.60;;
41043;SDS011;51680;49.806;18.774;2023-07-28T08:37:02;3.80;;;1.73;;
41043;SDS011;51680;49.806;18.774;2023-07-28T08:40:04;3.15;;;1.60;;
41043;SDS011;51680;49.806;18.774;2023-07-28T08:43:07;3.50;;;1.83;;
41043;SDS011;51680;49.806;18.774;2023-07-28T08:46:09;3.65;;;1.60;;
41043;SDS011;51680;49.806;18.774;2023-07-28T08:49:11;4.55;;;1.70;;
41043;SDS011;51680;49.806;18.774;2023-07-28T08:52:15;4.75;;;1.45;;
41043;SDS011;51680;49.806;18.774;2023-07-28T08:55:18;3.38;;;1.75;;
41043;SDS011;51680;49.806;18.774;2023-07-28T08:58:20;3.10;;;1.70;;
41043;SDS011;51680;49.806;18.774;2023-07-28T09:01:24;4.03;;;1.70;;
41043;SDS011;51680;49.806;18.774;2023-07-28T09:04:26;2.50;;;1.65;;
41043;SDS011;51680;49.806;18.774;2023-07-28T09:07:33;3.30;;;2.00;;
41043;SDS011;51680;49.806;18.774;2023-07-28T09:10:43;3.15;;;1.90;;
41043;SDS011;51680;49.806;18.774;2023-07-28T09:13:45;3.75;;;1.85;;
41043;SDS011;51680;49.806;18.774;2023-07-28T09:19:51;2.97;;;2.00;;
41043;SDS011;51680;49.806;18.774;2023-07-28T09:22:56;2.90;;;1.63;;
41043;SDS011;51680;49.806;18.774;2023-07-28T09:26:00;3.77;;;1.80;;
41043;SDS011;51680;49.806;18.774;2023-07-28T09:29:10;2.70;;;1.80;;
41043;SDS011;51680;49.806;18.774;2023-07-28T09:32:12;3.33;;;1.70;;
41043;SDS011;51680;49.806;18.774;2023-07-28T09:35:14;3.33;;;1.77;;
41043;SDS011;51680;49.806;18.774;2023-07-28T09:38:18;2.97;;;1.70;;
41043;SDS011;51680;49.806;18.774;2023-07-28T09:41:21;4.07;;;2.15;;
41043;SDS011;51680;49.806;18.774;2023-07-28T09:44:23;3.10;;;1.80;;
41043;SDS011;51680;49.806;18.774;2023-07-28T09:47:25;5.05;;;2.05;;
41043;SDS011;51680;49.806;18.774;2023-07-28T09:50:32;2.92;;;1.88;;
41043;SDS011;51680;49.806;18.774;2023-07-28T09:53:39;4.55;;;1.95;;
41043;SDS011;51680;49.806;18.774;2023-07-28T09:56:45;4.55;;;2.00;;
41043;SDS011;51680;49.806;18.774;2023-07-28T09:59:48;4.22;;;1.98;;
41043;SDS011;51680;49.806;18.774;2023-07-28T10:02:53;3.70;;;1.80;;
41043;SDS011;51680;49.806;18.774;2023-07-28T10:05:55;3.67;;;1.75;;
41043;SDS011;51680;49.806;18.774;2023-07-28T10:08:59;3.13;;;1.90;;
41043;SDS011;51680;49.806;18.774;2023-07-28T10:12:01;4.30;;;2.00;;
41043;SDS011;51680;49.806;18.774;2023-07-28T10:15:05;2.72;;;1.40;;
41043;SDS011;51680;49.806;18.774;2023-07-28T10:18:08;3.23;;;1.50;;
41043;SDS011;51680;49.806;18.774;2023-07-28T10:21:10;2.67;;;1.30;;
41043;SDS011;51680;49.806;18.774;2023-07-28T10:24:18;2.88;;;1.58;;
41043;SDS011;51680;49.806;18.774;2023-07-28T10:27:30;2.10;;;1.23;;
41043;SDS011;51680;49.806;18.774;2023-07-28T10:30:36;3.47;;;1.55;;
41043;SDS011;51680;49.806;18.774;2023-07-28T10:33:40;5.15;;;1.85;;
41043;SDS011;51680;49.806;18.774;2023-07-28T10:36:45;4.30;;;1.88;;
41043;SDS011;51680;49.806;18.774;2023-07-28T10:39:48;2.67;;;1.40;;
41043;SDS011;51680;49.806;18.774;2023-07-28T10:42:50;2.37;;;1.30;;
41043;SDS011;51680;49.806;18.774;2023-07-28T10:45:53;2.70;;;1.10;;
41043;SDS011;51680;49.806;18.774;2023-07-28T10:48:55;3.53;;;1.00;;
41043;SDS011;51680;49.806;18.774;2023-07-28T10:51:56;1.73;;;0.90;;
41043;SDS011;51680;49.806;18.774;2023-07-28T10:54:59;2.55;;;0.82;;
41043;SDS011;51680;49.806;18.774;2023-07-28T10:58:01;1.23;;;0.63;;
41043;SDS011;51680;49.806;18.774;2023-07-28T11:01:04;1.97;;;0.70;;
41043;SDS011;51680;49.806;18.774;2023-07-28T11:04:11;2.97;;;0.75;;
41043;SDS011;51680;49.806;18.774;2023-07-28T11:07:14;1.95;;;0.85;;
41043;SDS011;51680;49.806;18.774;2023-07-28T11:10:18;1.95;;;0.90;;
41043;SDS011;51680;49.806;18.774;2023-07-28T11:13:20;2.38;;;0.77;;
41043;SDS011;51680;49.806;18.774;2023-07-28T11:16:25;1.98;;;0.80;;
41043;SDS011;51680;49.806;18.774;2023-07-28T11:19:26;1.90;;;0.88;;
41043;SDS011;51680;49.806;18.774;2023-07-28T11:22:28;1.67;;;0.80;;
41043;SDS011;51680;49.806;18.774;2023-07-28T11:25:32;1.10;;;0.70;;
41043;SDS011;51680;49.806;18.774;2023-07-28T11:31:36;1.48;;;0.70;;
41043;SDS011;51680;49.806;18.774;2023-07-28T11:34:38;3.35;;;0.80;;
41043;SDS011;51680;49.806;18.774;2023-07-28T11:37:42;3.30;;;0.73;;
41043;SDS011;51680;49.806;18.774;2023-07-28T11:40:48;2.40;;;0.70;;
41043;SDS011;51680;49.806;18.774;2023-07-28T11:43:51;1.13;;;0.60;;
41043;SDS011;51680;49.806;18.774;2023-07-28T11:46:53;2.90;;;0.68;;
41043;SDS011;51680;49.806;18.774;2023-07-28T11:49:55;1.65;;;0.82;;
41043;SDS011;51680;49.806;18.774;2023-07-28T11:52:58;0.82;;;0.52;;
41043;SDS011;51680;49.806;18.774;2023-07-28T11:56:01;1.10;;;0.70;;
41043;SDS011;51680;49.806;18.774;2023-07-28T11:59:03;1.53;;;0.70;;
41043;SDS011;51680;49.806;18.774;2023-07-28T12:02:06;2.08;;;0.90;;
41043;SDS011;51680;49.806;18.774;2023-07-28T12:05:11;1.02;;;0.55;;
41043;SDS011;51680;49.806;18.774;2023-07-28T12:08:14;1.85;;;0.90;;
41043;SDS011;51680;49.806;18.774;2023-07-28T12:11:17;4.50;;;1.08;;
41043;SDS011;51680;49.806;18.774;2023-07-28T12:14:29;2.58;;;0.95;;
41043;SDS011;51680;49.806;18.774;2023-07-28T12:17:32;2.72;;;1.13;;
41043;SDS011;51680;49.806;18.774;2023-07-28T12:20:34;2.20;;;1.10;;
41043;SDS011;51680;49.806;18.774;2023-07-28T12:23:37;3.30;;;0.85;;
41043;SDS011;51680;49.806;18.774;2023-07-28T12:26:40;1.98;;;1.00;;
41043;SDS011;51680;49.806;18.774;2023-07-28T12:29:42;1.50;;;0.70;;
41043;SDS011;51680;49.806;18.774;2023-07-28T12:32:44;3.95;;;0.98;;
41043;SDS011;51680;49.806;18.774;2023-07-28T12:35:46;2.45;;;1.00;;
41043;SDS011;51680;49.806;18.774;2023-07-28T12:38:48;1.52;;;0.80;;
41043;SDS011;51680;49.806;18.774;2023-07-28T12:41:51;3.72;;;1.00;;
41043;SDS011;51680;49.806;18.774;2023-07-28T12:44:53;1.83;;;0.80;;
41043;SDS011;51680;49.806;18.774;2023-07-28T12:47:55;2.15;;;0.60;;
41043;SDS011;51680;49.806;18.774;2023-07-28T12:50:57;3.08;;;0.70;;
41043;SDS011;51680;49.806;18.774;2023-07-28T12:54:00;3.70;;;0.88;;
41043;SDS011;51680;49.806;18.774;2023-07-28T12:57:04;1.17;;;0.68;;
41043;SDS011;51680;49.806;18.774;2023-07-28T13:00:07;5.18;;;3.10;;
41043;SDS011;51680;49.806;18.774;2023-07-28T13:03:12;1.77;;;0.73;;
41043;SDS011;51680;49.806;18.774;2023-07-28T13:06:14;3.83;;;2.53;;
41043;SDS011;51680;49.806;18.774;2023-07-28T13:09:16;1.42;;;0.70;;
41043;SDS011;51680;49.806;18.774;2023-07-28T13:12:19;3.47;;;0.70;;
41043;SDS011;51680;49.806;18.774;2023-07-28T13:15:21;0.77;;;0.50;;
41043;SDS011;51680;49.806;18.774;2023-07-28T13:18:23;1.60;;;0.60;;
41043;SDS011;51680;49.806;18.774;2023-07-28T13:21:25;1.27;;;0.50;;
41043;SDS011;51680;49.806;18.774;2023-07-28T13:24:27;0.98;;;0.60;;
41043;SDS011;51680;49.806;18.774;2023-07-28T13:27:30;1.00;;;0.50;;
41043;SDS011;51680;49.806;18.774;2023-07-28T13:30:32;1.48;;;0.57;;
41043;SDS011;51680;49.806;18.774;2023-07-28T13:33:34;2.35;;;0.70;;
41043;SDS011;51680;49.806;18.774;2023-07-28T13:36:35;1.20;;;0.60;;
41043;SDS011;51680;49.806;18.774;2023-07-28T13:39:37;2.35;;;0.60;;
41043;SDS011;51680;49.806;18.774;2023-07-28T13:42:40;2.58;;;0.98;;
41043;SDS011;51680;49.806;18.774;2023-07-28T13:45:42;2.47;;;0.50;;
41043;SDS011;51680;49.806;18.774;2023-07-28T13:48:44;1.17;;;0.40;;
41043;SDS011;51680;49.806;18.774;2023-07-28T13:51:45;1.45;;;0.50;;
41043;SDS011;51680;49.806;18.774;2023-07-28T13:54:47;1.67;;;0.50;;
41043;SDS011;51680;49.806;18.774;2023-07-28T13:57:50;2.60;;;0.70;;
41043;SDS011;51680;49.806;18.774;2023-07-28T14:00:52;3.17;;;0.95;;
41043;SDS011;51680;49.806;18.774;2023-07-28T14:03:54;3.40;;;1.15;;
41043;SDS011;51680;49.806;18.774;2023-07-28T14:06:55;6.97;;;4.05;;
41043;SDS011;51680;49.806;18.774;2023-07-28T14:09:59;4.10;;;2.37;;
41043;SDS011;51680;49.806;18.774;2023-07-28T14:13:02;2.20;;;1.27;;
41043;SDS011;51680;49.806;18.774;2023-07-28T14:16:03;2.37;;;1.47;;
41043;SDS011;51680;49.806;18.774;2023-07-28T14:19:06;3.30;;;1.00;;
41043;SDS011;51680;49.806;18.774;2023-07-28T14:22:07;2.70;;;1.17;;
41043;SDS011;51680;49.806;18.774;2023-07-28T14:25:09;3.88;;;1.55;;
41043;SDS011;51680;49.806;18.774;2023-07-28T14:28:12;3.97;;;1.30;;
41043;SDS011;51680;49.806;18.774;2023-07-28T14:31:14;5.90;;;1.70;;
41043;SDS011;51680;49.806;18.774;2023-07-28T14:34:16;2.95;;;1.85;;
41043;SDS011;51680;49.806;18.774;2023-07-28T14:37:18;2.85;;;1.42;;
41043;SDS011;51680;49.806;18.774;2023-07-28T14:40:19;4.45;;;1.98;;
41043;SDS011;51680;49.806;18.774;2023-07-28T14:43:22;3.10;;;1.95;;
41043;SDS011;51680;49.806;18.774;2023-07-28T14:49:27;4.85;;;2.75;;
41043;SDS011;51680;49.806;18.774;2023-07-28T14:52:29;4.55;;;2.28;;
41043;SDS011;51680;49.806;18.774;2023-07-28T14:55:30;4.82;;;1.77;;
41043;SDS011;51680;49.806;18.774;2023-07-28T14:58:34;3.40;;;1.67;;
41043;SDS011;51680;49.806;18.774;2023-07-28T15:01:35;2.95;;;1.75;;
41043;SDS011;51680;49.806;18.774;2023-07-28T15:04:37;4.72;;;2.17;;
41043;SDS011;51680;49.806;18.774;2023-07-28T15:07:39;4.88;;;2.88;;
41043;SDS011;51680;49.806;18.774;2023-07-28T15:10:41;4.00;;;2.53;;
41043;SDS011;51680;49.806;18.774;2023-07-28T15:13:44;4.35;;;2.33;;
41043;SDS011;51680;49.806;18.774;2023-07-28T15:16:46;5.07;;;2.38;;
41043;SDS011;51680;49.806;18.774;2023-07-28T15:19:47;5.95;;;2.65;;
41043;SDS011;51680;49.806;18.774;2023-07-28T15:22:49;5.35;;;2.40;;
41043;SDS011;51680;49.806;18.774;2023-07-28T15:25:51;5.70;;;2.10;;
41043;SDS011;51680;49.806;18.774;2023-07-28T15:28:58;4.53;;;2.05;;
41043;SDS011;51680;49.806;18.774;2023-07-28T15:32:01;3.78;;;1.77;;
41043;SDS011;51680;49.806;18.774;2023-07-28T15:35:03;2.65;;;1.65;;
41043;SDS011;51680;49.806;18.774;2023-07-28T15:38:05;5.03;;;1.95;;
41043;SDS011;51680;49.806;18.774;2023-07-28T15:41:07;2.67;;;1.63;;
41043;SDS011;51680;49.806;18.774;2023-07-28T15:44:10;2.10;;;1.05;;
41043;SDS011;51680;49.806;18.774;2023-07-28T15:47:12;3.23;;;1.80;;
41043;SDS011;51680;49.806;18.774;2023-07-28T15:50:14;2.70;;;1.48;;
41043;SDS011;51680;49.806;18.774;2023-07-28T15:53:15;7.13;;;1.73;;
41043;SDS011;51680;49.806;18.774;2023-07-28T15:56:17;2.45;;;1.40;;
41043;SDS011;51680;49.806;18.774;2023-07-28T15:59:20;3.38;;;1.77;;
41043;SDS011;51680;49.806;18.774;2023-07-28T16:02:22;2.43;;;1.50;;
41043;SDS011;51680;49.806;18.774;2023-07-28T16:05:24;3.75;;;1.50;;
41043;SDS011;51680;49.806;18.774;2023-07-28T16:08:25;6.43;;;1.70;;
41043;SDS011;51680;49.806;18.774;2023-07-28T16:11:28;9.45;;;1.33;;
41043;SDS011;51680;49.806;18.774;2023-07-28T16:14:33;3.42;;;1.33;;
41043;SDS011;51680;49.806;18.774;2023-07-28T16:17:35;7.03;;;1.50;;
41043;SDS011;51680;49.806;18.774;2023-07-28T16:20:36;3.47;;;1.58;;
41043;SDS011;51680;49.806;18.774;2023-07-28T16:23:38;3.10;;;1.80;;
41043;SDS011;51680;49.806;18.774;2023-07-28T16:26:40;3.60;;;1.73;;
41043;SDS011;51680;49.806;18.774;2023-07-28T16:29:43;2.63;;;1.40;;
41043;SDS011;51680;49.806;18.774;2023-07-28T16:32:45;3.37;;;1.60;;
41043;SDS011;51680;49.806;18.774;2023-07-28T16:35:47;4.03;;;1.92;;
41043;SDS011;51680;49.806;18.774;2023-07-28T16:38:48;6.10;;;1.83;;
41043;SDS011;51680;49.806;18.774;2023-07-28T16:41:50;4.07;;;1.70;;
41043;SDS011;51680;49.806;18.774;2023-07-28T16:44:53;3.80;;;1.80;;
41043;SDS011;51680;49.806;18.774;2023-07-28T16:47:55;3.13;;;1.50;;
41043;SDS011;51680;49.806;18.774;2023-07-28T16:50:56;2.88;;;1.67;;
41043;SDS011;51680;49.806;18.774;2023-07-28T16:53:58;4.40;;;1.83;;
41043;SDS011;51680;49.806;18.774;2023-07-28T16:57:01;2.63;;;1.60;;
41043;SDS011;51680;49.806;18.774;2023-07-28T17:00:04;2.58;;;1.85;;
41043;SDS011;51680;49.806;18.774;2023-07-28T17:03:07;3.92;;;1.83;;
41043;SDS011;51680;49.806;18.774;2023-07-28T17:06:09;2.78;;;1.63;;
41043;SDS011;51680;49.806;18.774;2023-07-28T17:09:11;4.05;;;1.70;;
41043;SDS011;51680;49.806;18.774;2023-07-28T17:12:13;4.25;;;1.73;;
41043;SDS011;51680;49.806;18.774;2023-07-28T17:15:16;3.65;;;1.70;;
41043;SDS011;51680;49.806;18.774;2023-07-28T17:18:17;2.40;;;1.30;;
41043;SDS011;51680;49.806;18.774;2023-07-28T17:21:19;3.00;;;1.60;;
41043;SDS011;51680;49.806;18.774;2023-07-28T17:24:21;4.57;;;1.80;;
41043;SDS011;51680;49.806;18.774;2023-07-28T17:27:23;5.20;;;1.30;;
41043;SDS011;51680;49.806;18.774;2023-07-28T17:30:26;6.97;;;1.90;;
41043;SDS011;51680;49.806;18.774;2023-07-28T17:33:27;4.63;;;1.40;;
41043;SDS011;51680;49.806;18.774;2023-07-28T17:36:29;4.00;;;1.30;;
41043;SDS011;51680;49.806;18.774;2023-07-28T17:39:31;4.85;;;1.40;;
41043;SDS011;51680;49.806;18.774;2023-07-28T17:42:33;3.78;;;1.48;;
41043;SDS011;51680;49.806;18.774;2023-07-28T17:45:37;3.20;;;1.60;;
41043;SDS011;51680;49.806;18.774;2023-07-28T17:48:39;2.93;;;1.20;;
41043;SDS011;51680;49.806;18.774;2023-07-28T17:51:40;6.35;;;1.65;;
41043;SDS011;51680;49.806;18.774;2023-07-28T17:54:42;2.85;;;1.52;;
41043;SDS011;51680;49.806;18.774;2023-07-28T17:57:44;4.78;;;1.77;;
41043;SDS011;51680;49.806;18.774;2023-07-28T18:00:47;3.65;;;1.55;;
41043;SDS011;51680;49.806;18.774;2023-07-28T18:03:49;5.00;;;1.77;;
41043;SDS011;51680;49.806;18.774;2023-07-28T18:06:51;4.00;;;1.58;;
41043;SDS011;51680;49.806;18.774;2023-07-28T18:09:53;3.75;;;1.55;;
41043;SDS011;51680;49.806;18.774;2023-07-28T18:12:54;5.93;;;1.50;;
41043;SDS011;51680;49.806;18.774;2023-07-28T18:15:57;4.32;;;1.67;;
41043;SDS011;51680;49.806;18.774;2023-07-28T18:18:59;2.47;;;1.50;;
41043;SDS011;51680;49.806;18.774;2023-07-28T18:22:01;5.53;;;1.50;;